Seven Pines, Texas
Current Conditions -  °F | °C
As of 10:55 PM on Saturday 22 Nov 2014 (Local Time) from KOSA Reporting Station
Overcast Overcast  
Wind Chill: 61°   Ceiling: 900
Heat Index: 61°   Visibility: 5mi
Dew Point: 60°   Wind: 6mph
Humidity: 99%   Direction: 80°E
Pressure: 29.82"   Gusts: NA
Location:  32.7353°N, 94.9492°W
Report Text: KOSA 230455Z AUTO 08005KT 5SM SCT003 BKN009 OVC065 16/16 A2982 RMK AO1 P0002 T01600158
Loading
Personal Weather Stations






























Interactive Weather Map New forecast layout! Learn more

10-Day Weather Forecast

Advertisements
Track Severe Weather on mobile